Time;durP1;ratioP1;P1;durP2;ratioP2;P2;SDS_P1;SDS_P2;PMS_P1;PMS_P2;Temp;Humidity;BMP_temperature;BMP_pressure;BME280_temperature;BME280_humidity;BME280_pressure;Samples;Min_cycle;Max_cycle;Signal;HPM_P1;HPM_P2
2021/10/05 00:00:40;;;;;;;8.10;4.05;;;;;;;;;;5020258;28;20451;-52
2021/10/05 00:03:05;;;;;;;5.72;3.90;;;;;;;;;;5012023;28;20208;-53
2021/10/05 00:05:31;;;;;;;7.85;4.68;;;;;;;;;;5014000;28;20044;-54
2021/10/05 00:07:57;;;;;;;11.15;4.68;;;;;;;;;;5013258;28;20045;-54
2021/10/05 00:10:23;;;;;;;7.97;5.05;;;;;;;;;;5011393;28;20041;-52
2021/10/05 00:12:48;;;;;;;8.90;4.57;;;;;;;;;;5018953;28;20033;-54
2021/10/05 00:15:13;;;;;;;7.05;4.55;;;;;;;;;;5021647;28;20037;-54
2021/10/05 00:17:38;;;;;;;9.40;4.88;;;;;;;;;;5015876;28;20025;-54
2021/10/05 00:20:07;;;;;;;8.27;4.15;;;;;;;;;;5013855;28;20117;-55
2021/10/05 00:22:32;;;;;;;7.45;4.18;;;;;;;;;;5007212;28;20022;-52
2021/10/05 00:24:57;;;;;;;7.10;4.40;;;;;;;;;;5011824;28;20109;-52
2021/10/05 00:27:22;;;;;;;8.05;4.32;;;;;;;;;;5017022;28;20030;-53
2021/10/05 00:29:47;;;;;;;9.40;4.85;;;;;;;;;;5019115;28;20048;-54
2021/10/05 00:32:13;;;;;;;9.15;4.60;;;;;;;;;;5007535;28;20354;-52
2021/10/05 00:34:38;;;;;;;10.23;4.90;;;;;;;;;;5012586;28;20057;-51
2021/10/05 00:37:03;;;;;;;8.70;4.68;;;;;;;;;;5011176;28;20577;-53
2021/10/05 00:39:28;;;;;;;8.43;4.60;;;;;;;;;;5011902;28;20029;-54
2021/10/05 00:41:54;;;;;;;13.65;5.38;;;;;;;;;;5022748;28;20038;-54
2021/10/05 00:44:32;;;;;;;10.07;4.88;;;;;;;;;;5015216;28;20021;-54
2021/10/05 00:47:01;;;;;;;7.60;5.03;;;;;;;;;;5010689;28;20157;-53
2021/10/05 00:49:26;;;;;;;8.18;4.88;;;;;;;;;;5018752;28;20043;-53
2021/10/05 00:51:51;;;;;;;11.13;4.68;;;;;;;;;;5015317;28;20436;-53
2021/10/05 00:54:16;;;;;;;8.68;4.70;;;;;;;;;;5022011;28;20030;-54
2021/10/05 00:56:42;;;;;;;7.05;4.40;;;;;;;;;;5009803;28;20038;-54
2021/10/05 00:59:07;;;;;;;6.03;4.35;;;;;;;;;;5009818;28;20217;-53
2021/10/05 01:01:32;;;;;;;7.63;4.72;;;;;;;;;;5011364;28;20378;-54
2021/10/05 01:03:57;;;;;;;7.20;4.43;;;;;;;;;;5006876;28;20530;-53
2021/10/05 01:06:22;;;;;;;9.65;5.03;;;;;;;;;;5019487;28;20084;-51
2021/10/05 01:08:48;;;;;;;7.43;4.60;;;;;;;;;;5015271;28;20041;-54
2021/10/05 01:11:13;;;;;;;9.40;4.50;;;;;;;;;;5006452;28;20326;-54
2021/10/05 01:13:38;;;;;;;10.02;5.38;;;;;;;;;;5009430;28;20025;-52
2021/10/05 01:16:04;;;;;;;8.38;4.80;;;;;;;;;;5013731;28;20042;-53
2021/10/05 01:18:29;;;;;;;9.75;4.95;;;;;;;;;;5016965;28;20035;-54
2021/10/05 01:20:58;;;;;;;9.82;5.00;;;;;;;;;;5015417;28;20038;-52
2021/10/05 01:23:23;;;;;;;8.18;4.97;;;;;;;;;;5015653;28;20049;-50
2021/10/05 01:25:48;;;;;;;8.18;4.78;;;;;;;;;;5009363;28;20492;-54
2021/10/05 01:28:15;;;;;;;6.63;4.03;;;;;;;;;;5018859;28;20041;-54
2021/10/05 01:30:41;;;;;;;12.32;5.32;;;;;;;;;;5009670;28;20034;-52
2021/10/05 01:33:06;;;;;;;6.60;4.30;;;;;;;;;;5010500;28;20376;-53
2021/10/05 01:35:31;;;;;;;7.60;4.70;;;;;;;;;;5019280;28;20054;-51
2021/10/05 01:37:56;;;;;;;9.48;5.15;;;;;;;;;;5009747;28;20030;-51
2021/10/05 01:40:21;;;;;;;7.30;4.72;;;;;;;;;;5008045;28;20045;-54
2021/10/05 01:42:47;;;;;;;8.70;5.38;;;;;;;;;;5017736;28;20026;-53
2021/10/05 01:45:12;;;;;;;8.77;4.97;;;;;;;;;;5013333;28;20030;-51
2021/10/05 01:47:39;;;;;;;9.07;5.40;;;;;;;;;;5012968;28;20021;-53
2021/10/05 01:50:04;;;;;;;7.63;5.00;;;;;;;;;;5008417;28;20061;-53
2021/10/05 01:52:29;;;;;;;8.48;5.25;;;;;;;;;;5010126;28;20634;-54
2021/10/05 01:54:56;;;;;;;6.28;4.28;;;;;;;;;;5008978;28;20032;-54
2021/10/05 01:57:21;;;;;;;6.30;4.50;;;;;;;;;;5020179;28;20388;-54
2021/10/05 01:59:46;;;;;;;7.97;4.90;;;;;;;;;;5011623;28;20022;-52
2021/10/05 02:02:11;;;;;;;8.23;4.88;;;;;;;;;;5015943;28;20403;-54
2021/10/05 02:04:37;;;;;;;7.70;4.88;;;;;;;;;;5019525;28;20022;-52
2021/10/05 02:07:02;;;;;;;8.02;4.65;;;;;;;;;;5008026;28;20030;-53
2021/10/05 02:09:30;;;;;;;9.32;5.03;;;;;;;;;;5032741;28;20041;-55
2021/10/05 02:11:56;;;;;;;9.43;4.82;;;;;;;;;;5021011;28;20056;-54
2021/10/05 02:14:21;;;;;;;7.60;4.43;;;;;;;;;;5024725;28;20034;-54
2021/10/05 02:16:46;;;;;;;6.78;4.40;;;;;;;;;;5008839;28;20046;-53
2021/10/05 02:19:11;;;;;;;7.75;4.45;;;;;;;;;;5009912;28;20125;-54
2021/10/05 02:21:37;;;;;;;9.77;5.00;;;;;;;;;;5023539;28;20764;-53
2021/10/05 02:26:46;;;;;;;9.48;4.55;;;;;;;;;;5015523;28;20607;-53
2021/10/05 02:29:11;;;;;;;8.23;4.70;;;;;;;;;;5017280;28;20026;-53
2021/10/05 02:31:37;;;;;;;7.00;4.68;;;;;;;;;;5012736;28;20047;-51
2021/10/05 02:34:02;;;;;;;6.68;4.40;;;;;;;;;;5008432;28;20113;-53
2021/10/05 02:36:27;;;;;;;7.45;4.60;;;;;;;;;;5008120;28;20141;-54
2021/10/05 02:38:53;;;;;;;6.72;4.38;;;;;;;;;;5011176;28;20061;-54
2021/10/05 02:41:18;;;;;;;7.50;4.32;;;;;;;;;;5021365;28;20111;-52
2021/10/05 02:43:43;;;;;;;5.85;3.80;;;;;;;;;;5021656;28;20010;-53
2021/10/05 02:46:08;;;;;;;4.97;3.28;;;;;;;;;;5023639;28;20587;-53
2021/10/05 02:48:33;;;;;;;9.75;3.33;;;;;;;;;;5018625;28;20801;-54
2021/10/05 02:50:59;;;;;;;5.25;3.50;;;;;;;;;;5009755;28;20616;-52
2021/10/05 02:53:24;;;;;;;5.95;4.03;;;;;;;;;;5015301;28;20048;-54
2021/10/05 02:55:49;;;;;;;7.03;3.95;;;;;;;;;;5020569;28;20589;-53
2021/10/05 02:58:15;;;;;;;9.52;4.15;;;;;;;;;;5016794;28;20534;-54
2021/10/05 03:00:40;;;;;;;10.75;4.32;;;;;;;;;;5013974;28;20556;-51
2021/10/05 03:03:06;;;;;;;8.30;4.40;;;;;;;;;;5017131;28;20467;-53
2021/10/05 03:05:31;;;;;;;7.13;3.90;;;;;;;;;;5013146;28;20508;-53
2021/10/05 03:07:56;;;;;;;7.80;4.32;;;;;;;;;;5007124;28;20058;-53
2021/10/05 03:10:23;;;;;;;7.40;4.53;;;;;;;;;;5010677;28;20033;-54
2021/10/05 03:12:48;;;;;;;9.38;4.80;;;;;;;;;;5017654;28;20056;-52
2021/10/05 03:15:15;;;;;;;6.15;4.10;;;;;;;;;;5020059;28;20033;-54
2021/10/05 03:17:40;;;;;;;6.78;4.80;;;;;;;;;;5012192;28;20013;-55
2021/10/05 03:20:05;;;;;;;12.27;5.07;;;;;;;;;;5018150;28;20103;-52
2021/10/05 03:22:31;;;;;;;9.80;5.20;;;;;;;;;;5011165;28;20013;-54
2021/10/05 03:24:56;;;;;;;7.85;5.10;;;;;;;;;;5020958;28;20040;-53
2021/10/05 03:27:21;;;;;;;7.35;4.93;;;;;;;;;;5012691;28;20076;-51
2021/10/05 03:29:46;;;;;;;9.75;5.03;;;;;;;;;;5023719;28;20108;-53
2021/10/05 03:32:11;;;;;;;8.23;4.45;;;;;;;;;;5016405;28;20049;-53
2021/10/05 03:34:37;;;;;;;7.03;4.57;;;;;;;;;;5009952;28;20036;-53
2021/10/05 03:37:02;;;;;;;8.35;4.20;;;;;;;;;;5014661;28;20235;-51
2021/10/05 03:39:27;;;;;;;8.70;4.30;;;;;;;;;;5023198;28;20049;-54
2021/10/05 03:41:53;;;;;;;7.15;4.05;;;;;;;;;;5016476;28;20029;-54
2021/10/05 03:44:18;;;;;;;6.97;4.20;;;;;;;;;;5019290;28;20028;-53
2021/10/05 03:46:43;;;;;;;6.85;4.10;;;;;;;;;;5008179;28;20506;-54
2021/10/05 03:49:08;;;;;;;9.00;4.55;;;;;;;;;;5015262;28;20026;-51
2021/10/05 03:51:34;;;;;;;5.32;3.72;;;;;;;;;;5013967;28;20038;-54
2021/10/05 03:53:59;;;;;;;4.95;3.67;;;;;;;;;;5009233;28;20530;-54
2021/10/05 03:56:24;;;;;;;8.63;4.40;;;;;;;;;;5008490;28;20491;-56
2021/10/05 03:58:49;;;;;;;5.72;3.80;;;;;;;;;;5018999;28;20029;-53
2021/10/05 04:01:14;;;;;;;8.27;4.18;;;;;;;;;;5013457;28;20045;-54
2021/10/05 04:03:41;;;;;;;7.25;4.03;;;;;;;;;;5011079;28;20040;-54
2021/10/05 04:06:06;;;;;;;6.70;4.13;;;;;;;;;;5005937;28;20045;-51
2021/10/05 04:08:32;;;;;;;7.53;4.40;;;;;;;;;;5006502;28;20018;-54
2021/10/05 04:10:57;;;;;;;7.28;4.15;;;;;;;;;;5006815;28;20061;-55
2021/10/05 04:13:23;;;;;;;6.65;4.03;;;;;;;;;;5013218;28;20072;-52
2021/10/05 04:15:48;;;;;;;7.35;3.88;;;;;;;;;;5017832;28;20115;-52
2021/10/05 04:18:13;;;;;;;5.18;3.90;;;;;;;;;;5015872;28;20021;-53
2021/10/05 04:20:38;;;;;;;8.30;4.60;;;;;;;;;;5015434;28;20083;-53
2021/10/05 04:23:03;;;;;;;7.72;4.45;;;;;;;;;;5012849;28;20040;-52
2021/10/05 04:25:29;;;;;;;9.57;5.07;;;;;;;;;;5006370;28;20053;-53
2021/10/05 04:27:54;;;;;;;7.43;4.13;;;;;;;;;;5019158;28;20021;-52
2021/10/05 04:30:19;;;;;;;9.18;4.40;;;;;;;;;;5026280;28;20049;-53
2021/10/05 04:32:44;;;;;;;8.10;4.50;;;;;;;;;;5020048;28;20029;-53
2021/10/05 04:35:10;;;;;;;7.45;4.20;;;;;;;;;;5013744;28;20033;-55
2021/10/05 04:37:35;;;;;;;8.77;4.32;;;;;;;;;;5007316;28;20022;-55
2021/10/05 04:40:01;;;;;;;5.43;3.88;;;;;;;;;;5027250;28;20028;-53
2021/10/05 04:42:26;;;;;;;5.32;3.92;;;;;;;;;;5006654;28;20431;-54
2021/10/05 04:44:51;;;;;;;7.78;3.72;;;;;;;;;;5019018;28;20285;-53
2021/10/05 04:47:16;;;;;;;11.43;3.92;;;;;;;;;;5005717;28;20472;-53
2021/10/05 04:49:42;;;;;;;7.18;3.65;;;;;;;;;;5005713;28;20435;-54
2021/10/05 04:52:07;;;;;;;9.00;4.70;;;;;;;;;;5012179;28;20042;-53
2021/10/05 04:54:32;;;;;;;9.02;4.60;;;;;;;;;;5017954;28;20056;-53
2021/10/05 04:56:57;;;;;;;9.25;4.40;;;;;;;;;;5013685;28;20041;-53
2021/10/05 04:59:23;;;;;;;8.00;4.90;;;;;;;;;;5005747;28;20040;-54
2021/10/05 05:01:48;;;;;;;12.27;4.22;;;;;;;;;;5005436;28;20049;-54
2021/10/05 05:04:13;;;;;;;8.80;5.00;;;;;;;;;;5012229;28;20030;-54
2021/10/05 05:06:38;;;;;;;7.63;5.22;;;;;;;;;;5021377;28;20044;-53
2021/10/05 05:09:04;;;;;;;10.45;4.80;;;;;;;;;;5022245;28;20061;-53
2021/10/05 05:11:29;;;;;;;5.80;4.10;;;;;;;;;;5014589;28;20085;-55
2021/10/05 05:13:54;;;;;;;9.45;4.57;;;;;;;;;;5014876;28;20125;-54
2021/10/05 05:16:20;;;;;;;6.38;4.40;;;;;;;;;;5008194;28;20045;-52
2021/10/05 05:18:45;;;;;;;6.80;4.68;;;;;;;;;;5008715;28;20114;-53
2021/10/05 05:21:10;;;;;;;6.63;4.20;;;;;;;;;;5009901;28;20037;-52
2021/10/05 05:23:35;;;;;;;7.18;4.20;;;;;;;;;;5017488;28;20025;-52
2021/10/05 05:26:00;;;;;;;6.32;4.63;;;;;;;;;;5014033;28;20515;-54
2021/10/05 05:28:26;;;;;;;7.97;4.45;;;;;;;;;;5030624;28;20021;-54
2021/10/05 05:30:51;;;;;;;9.43;4.80;;;;;;;;;;5009973;28;20119;-53
2021/10/05 05:33:16;;;;;;;7.88;4.50;;;;;;;;;;5015289;28;20038;-52
2021/10/05 05:35:41;;;;;;;7.22;4.60;;;;;;;;;;5021765;28;20053;-53
2021/10/05 05:38:07;;;;;;;8.35;4.40;;;;;;;;;;5015069;28;20028;-52
2021/10/05 05:40:32;;;;;;;7.47;4.47;;;;;;;;;;5020345;28;20048;-53
2021/10/05 05:42:57;;;;;;;7.00;4.35;;;;;;;;;;5024606;28;20495;-53
2021/10/05 05:45:22;;;;;;;8.18;4.32;;;;;;;;;;5016732;28;20042;-51
2021/10/05 05:47:47;;;;;;;8.07;4.15;;;;;;;;;;5018947;28;20037;-53
2021/10/05 05:50:13;;;;;;;8.23;4.50;;;;;;;;;;5017087;28;20080;-52
2021/10/05 05:52:38;;;;;;;6.25;3.88;;;;;;;;;;5024465;28;20186;-53
2021/10/05 05:55:03;;;;;;;6.22;4.00;;;;;;;;;;5023258;28;20037;-55
2021/10/05 05:57:29;;;;;;;5.88;4.30;;;;;;;;;;5021876;28;20097;-54
2021/10/05 05:59:54;;;;;;;7.30;4.43;;;;;;;;;;5021171;28;20131;-52
2021/10/05 06:02:20;;;;;;;7.60;4.40;;;;;;;;;;5024495;28;20030;-53
2021/10/05 06:04:45;;;;;;;6.30;4.50;;;;;;;;;;5018231;28;20029;-53
2021/10/05 06:07:11;;;;;;;6.93;4.90;;;;;;;;;;5011523;28;20037;-52
2021/10/05 06:09:36;;;;;;;7.22;4.53;;;;;;;;;;5017095;28;20118;-53
2021/10/05 06:12:04;;;;;;;6.88;5.03;;;;;;;;;;5013503;28;20054;-53
2021/10/05 06:14:30;;;;;;;7.68;4.78;;;;;;;;;;5016347;28;20301;-53
2021/10/05 06:16:56;;;;;;;6.88;4.45;;;;;;;;;;5011580;28;20037;-51
2021/10/05 06:19:21;;;;;;;6.97;4.70;;;;;;;;;;5013610;28;20642;-53
2021/10/05 06:21:46;;;;;;;8.85;4.47;;;;;;;;;;5012452;28;20045;-55
2021/10/05 06:24:12;;;;;;;6.82;4.63;;;;;;;;;;5020685;28;20026;-53
2021/10/05 06:26:37;;;;;;;6.40;4.55;;;;;;;;;;5017318;28;20037;-53
2021/10/05 06:29:03;;;;;;;6.18;4.63;;;;;;;;;;5023637;28;20112;-53
2021/10/05 06:31:28;;;;;;;6.82;4.72;;;;;;;;;;5018154;28;20522;-54
2021/10/05 06:33:53;;;;;;;9.75;4.78;;;;;;;;;;5015788;28;20574;-53
2021/10/05 06:36:18;;;;;;;7.97;4.78;;;;;;;;;;5019619;28;20447;-51
2021/10/05 06:38:44;;;;;;;7.35;4.78;;;;;;;;;;5023976;28;20120;-53
2021/10/05 06:41:09;;;;;;;9.32;5.65;;;;;;;;;;5021352;28;20041;-54
2021/10/05 06:43:34;;;;;;;10.55;6.18;;;;;;;;;;5015414;28;20026;-53
2021/10/05 06:45:59;;;;;;;8.43;5.75;;;;;;;;;;5023527;28;20029;-53
2021/10/05 06:48:24;;;;;;;7.72;5.63;;;;;;;;;;5015341;28;20025;-51
2021/10/05 06:50:50;;;;;;;8.00;5.43;;;;;;;;;;5012911;28;20034;-51
2021/10/05 06:53:18;;;;;;;7.45;5.50;;;;;;;;;;5017887;28;20029;-53
2021/10/05 06:55:44;;;;;;;8.23;5.22;;;;;;;;;;5032748;28;20076;-54
2021/10/05 06:58:09;;;;;;;7.95;5.85;;;;;;;;;;5013267;28;20026;-53
2021/10/05 07:00:34;;;;;;;9.07;5.35;;;;;;;;;;5016835;28;20445;-54
2021/10/05 07:02:59;;;;;;;7.35;5.63;;;;;;;;;;5018988;28;20021;-53
2021/10/05 07:05:25;;;;;;;9.52;6.18;;;;;;;;;;5017730;28;20047;-54
2021/10/05 07:07:50;;;;;;;8.80;5.70;;;;;;;;;;5018061;28;20026;-53
2021/10/05 07:10:16;;;;;;;6.72;5.43;;;;;;;;;;5012742;28;20029;-54
2021/10/05 07:12:45;;;;;;;7.40;5.45;;;;;;;;;;5013486;28;20026;-54
2021/10/05 07:15:10;;;;;;;7.30;5.88;;;;;;;;;;5018523;28;20041;-57
2021/10/05 07:17:35;;;;;;;8.20;5.88;;;;;;;;;;5022597;28;20076;-54
2021/10/05 07:20:01;;;;;;;8.18;6.60;;;;;;;;;;5012393;28;20034;-54
2021/10/05 07:22:26;;;;;;;8.48;5.93;;;;;;;;;;5012479;28;20109;-55
2021/10/05 07:24:51;;;;;;;7.38;6.22;;;;;;;;;;5011828;28;20034;-55
2021/10/05 07:27:17;;;;;;;7.10;6.05;;;;;;;;;;5011602;28;20068;-53
2021/10/05 07:29:42;;;;;;;6.95;5.60;;;;;;;;;;5022636;28;20583;-54
2021/10/05 07:32:07;;;;;;;6.85;5.72;;;;;;;;;;5015023;28;20415;-54
2021/10/05 07:34:32;;;;;;;7.50;5.55;;;;;;;;;;5015017;28;20384;-55
2021/10/05 07:36:58;;;;;;;7.30;6.07;;;;;;;;;;5020044;28;20144;-56
2021/10/05 07:39:23;;;;;;;7.85;5.97;;;;;;;;;;5023156;28;20017;-52
2021/10/05 07:41:48;;;;;;;12.60;5.88;;;;;;;;;;5020652;28;20075;-56
2021/10/05 07:44:13;;;;;;;8.27;5.50;;;;;;;;;;5012736;28;20523;-54
2021/10/05 07:46:39;;;;;;;13.70;5.93;;;;;;;;;;5011519;28;20057;-53
2021/10/05 07:49:04;;;;;;;9.82;6.10;;;;;;;;;;5013190;28;20025;-52
2021/10/05 07:51:30;;;;;;;8.48;6.10;;;;;;;;;;5020309;28;20033;-53
2021/10/05 07:53:55;;;;;;;11.38;5.70;;;;;;;;;;5007173;28;20022;-54
2021/10/05 07:56:20;;;;;;;11.43;6.03;;;;;;;;;;5011736;28;20469;-53
2021/10/05 07:58:45;;;;;;;10.13;6.85;;;;;;;;;;5016169;28;20084;-53
2021/10/05 08:01:10;;;;;;;9.32;6.63;;;;;;;;;;5009858;28;20068;-53
2021/10/05 08:03:35;;;;;;;13.18;6.75;;;;;;;;;;5016386;28;20022;-54
2021/10/05 08:06:01;;;;;;;8.55;6.57;;;;;;;;;;5022625;28;20045;-54
2021/10/05 08:08:28;;;;;;;7.55;6.28;;;;;;;;;;5012283;28;20022;-55
2021/10/05 08:10:53;;;;;;;9.15;5.55;;;;;;;;;;5012099;28;20512;-53
2021/10/05 08:13:18;;;;;;;7.43;5.75;;;;;;;;;;5014868;28;20153;-54
2021/10/05 08:15:44;;;;;;;8.75;6.28;;;;;;;;;;5011754;28;20117;-56
2021/10/05 08:18:09;;;;;;;7.47;6.22;;;;;;;;;;5010410;28;20057;-54
2021/10/05 08:20:34;;;;;;;7.90;6.25;;;;;;;;;;5007996;28;20089;-53
2021/10/05 08:22:59;;;;;;;7.35;5.95;;;;;;;;;;5007265;28;20395;-54
2021/10/05 08:25:25;;;;;;;7.72;6.05;;;;;;;;;;5006610;28;20038;-54
2021/10/05 08:27:50;;;;;;;8.52;6.30;;;;;;;;;;5013074;28;20018;-54
2021/10/05 08:30:15;;;;;;;7.90;6.13;;;;;;;;;;5008052;28;20114;-54
2021/10/05 08:32:41;;;;;;;15.02;6.05;;;;;;;;;;5014562;28;20026;-53
2021/10/05 08:35:06;;;;;;;8.48;6.28;;;;;;;;;;5018087;28;20048;-53
2021/10/05 08:37:32;;;;;;;17.30;10.23;;;;;;;;;;5010929;28;20101;-53
2021/10/05 08:39:57;;;;;;;9.95;7.07;;;;;;;;;;5010357;28;20025;-54
2021/10/05 08:42:22;;;;;;;7.30;6.05;;;;;;;;;;5016273;28;20198;-54
2021/10/05 08:44:48;;;;;;;8.48;6.18;;;;;;;;;;5019471;28;20056;-53
2021/10/05 08:47:14;;;;;;;7.57;5.28;;;;;;;;;;5020413;28;20045;-53
2021/10/05 08:49:39;;;;;;;9.27;5.60;;;;;;;;;;5035255;28;20026;-53
2021/10/05 08:52:04;;;;;;;6.13;4.60;;;;;;;;;;5013071;28;20050;-54
2021/10/05 08:54:29;;;;;;;7.13;4.80;;;;;;;;;;5020688;28;20021;-54
2021/10/05 08:56:55;;;;;;;6.38;4.28;;;;;;;;;;5021174;28;20048;-54
2021/10/05 08:59:20;;;;;;;6.13;4.75;;;;;;;;;;5006670;28;20102;-53
2021/10/05 09:01:47;;;;;;;5.50;4.28;;;;;;;;;;5011254;28;20747;-54
2021/10/05 09:04:12;;;;;;;5.80;3.85;;;;;;;;;;5013426;28;20377;-53
2021/10/05 09:06:38;;;;;;;6.00;4.35;;;;;;;;;;5017746;28;20044;-52
2021/10/05 09:09:05;;;;;;;6.88;4.05;;;;;;;;;;5015169;28;20029;-55
2021/10/05 09:11:43;;;;;;;7.28;3.83;;;;;;;;;;5024956;28;20531;-54
2021/10/05 09:14:08;;;;;;;6.05;3.40;;;;;;;;;;5018055;28;20028;-54
2021/10/05 09:16:34;;;;;;;4.72;3.40;;;;;;;;;;5021946;28;20042;-54
2021/10/05 09:19:00;;;;;;;4.20;3.10;;;;;;;;;;5013497;28;20123;-55
2021/10/05 09:21:27;;;;;;;5.13;3.63;;;;;;;;;;5019294;28;20164;-53
2021/10/05 09:23:53;;;;;;;5.05;3.00;;;;;;;;;;5022166;28;20022;-54
2021/10/05 09:26:18;;;;;;;5.38;2.90;;;;;;;;;;5009340;28;20128;-53
2021/10/05 09:28:44;;;;;;;3.75;2.75;;;;;;;;;;5028636;28;20112;-54
2021/10/05 09:31:09;;;;;;;3.58;2.42;;;;;;;;;;5012896;28;20042;-54
2021/10/05 09:33:34;;;;;;;5.15;2.28;;;;;;;;;;5014196;28;20032;-53
2021/10/05 09:36:00;;;;;;;3.08;2.08;;;;;;;;;;5008057;28;20056;-54
2021/10/05 09:38:26;;;;;;;4.72;2.20;;;;;;;;;;5014423;28;20143;-54
2021/10/05 09:40:57;;;;;;;5.25;2.08;;;;;;;;;;5018753;28;20154;-53
2021/10/05 09:43:22;;;;;;;7.15;2.22;;;;;;;;;;5019211;28;20021;-52
2021/10/05 09:45:48;;;;;;;13.05;2.50;;;;;;;;;;5024310;28;20042;-54
2021/10/05 09:48:13;;;;;;;3.00;2.10;;;;;;;;;;5015856;28;20030;-53
2021/10/05 09:50:38;;;;;;;5.65;2.10;;;;;;;;;;5021787;28;20034;-54
2021/10/05 09:53:04;;;;;;;4.60;2.10;;;;;;;;;;5009742;28;20026;-54
2021/10/05 09:55:36;;;;;;;3.47;1.90;;;;;;;;;;5029351;28;20041;-54
2021/10/05 09:58:02;;;;;;;2.65;1.88;;;;;;;;;;5014819;28;20033;-54
2021/10/05 10:00:28;;;;;;;2.33;1.85;;;;;;;;;;5016009;28;20037;-54
2021/10/05 10:02:53;;;;;;;3.20;1.85;;;;;;;;;;5009661;28;20071;-54
2021/10/05 10:05:19;;;;;;;2.53;1.80;;;;;;;;;;5024719;28;20036;-53
2021/10/05 10:07:49;;;;;;;3.50;1.80;;;;;;;;;;5014658;28;20184;-53
2021/10/05 10:10:18;;;;;;;5.07;2.08;;;;;;;;;;5008005;28;20131;-55
2021/10/05 10:12:47;;;;;;;4.40;2.42;;;;;;;;;;5015093;28;20106;-54
2021/10/05 10:15:12;;;;;;;3.40;1.90;;;;;;;;;;5025867;28;20076;-55
2021/10/05 10:17:38;;;;;;;2.35;1.77;;;;;;;;;;5031714;28;20048;-55
2021/10/05 10:20:03;;;;;;;2.53;1.80;;;;;;;;;;5017225;28;20487;-54
2021/10/05 10:22:28;;;;;;;6.57;2.13;;;;;;;;;;5019623;28;20170;-54
2021/10/05 10:24:56;;;;;;;5.20;1.80;;;;;;;;;;5018745;28;20032;-54
2021/10/05 10:27:21;;;;;;;2.85;1.90;;;;;;;;;;5017678;28;20585;-54
2021/10/05 10:29:47;;;;;;;4.35;1.80;;;;;;;;;;5034941;28;20061;-54
2021/10/05 10:32:15;;;;;;;2.78;1.88;;;;;;;;;;5016756;28;20033;-54
2021/10/05 10:34:43;;;;;;;2.92;1.80;;;;;;;;;;5019311;28;20064;-54
2021/10/05 10:37:11;;;;;;;2.15;1.80;;;;;;;;;;5013118;28;20530;-55
2021/10/05 10:39:39;;;;;;;4.80;1.92;;;;;;;;;;5013410;28;20029;-54
2021/10/05 10:42:06;;;;;;;3.78;1.95;;;;;;;;;;5013402;28;20045;-54
2021/10/05 10:44:37;;;;;;;2.72;1.67;;;;;;;;;;5015957;28;20104;-55
2021/10/05 10:47:18;;;;;;;3.47;1.67;;;;;;;;;;5013491;28;20034;-57
2021/10/05 10:50:13;;;;;;;3.40;1.92;;;;;;;;;;5015925;28;20033;-56
2021/10/05 10:52:41;;;;;;;3.13;1.75;;;;;;;;;;5023982;28;20964;-54
2021/10/05 10:55:06;;;;;;;3.97;1.90;;;;;;;;;;5020663;28;20493;-52
2021/10/05 10:57:32;;;;;;;3.92;1.80;;;;;;;;;;5013038;28;20021;-55
2021/10/05 11:00:07;;;;;;;5.55;1.92;;;;;;;;;;5026878;28;20033;-56
2021/10/05 11:02:39;;;;;;;3.75;1.90;;;;;;;;;;5007171;28;20069;-55
2021/10/05 11:05:05;;;;;;;6.03;1.88;;;;;;;;;;5024968;28;20522;-55
2021/10/05 11:07:31;;;;;;;2.65;1.77;;;;;;;;;;5024441;28;20034;-55
2021/10/05 11:09:57;;;;;;;4.90;1.90;;;;;;;;;;5019130;28;20025;-55
2021/10/05 11:12:22;;;;;;;3.10;1.60;;;;;;;;;;5008091;28;20080;-55
2021/10/05 11:14:48;;;;;;;3.33;1.80;;;;;;;;;;5017962;28;20156;-55
2021/10/05 11:17:13;;;;;;;3.70;1.70;;;;;;;;;;5014390;28;20579;-53
2021/10/05 11:19:39;;;;;;;4.85;2.00;;;;;;;;;;5014473;28;20018;-56
2021/10/05 11:22:06;;;;;;;2.13;1.60;;;;;;;;;;5011652;28;20053;-55
2021/10/05 11:24:35;;;;;;;3.55;1.63;;;;;;;;;;5032185;28;20029;-53
2021/10/05 11:27:06;;;;;;;4.70;2.08;;;;;;;;;;5011037;28;20360;-55
2021/10/05 11:29:31;;;;;;;4.32;1.80;;;;;;;;;;5020294;28;20045;-55
2021/10/05 11:31:58;;;;;;;3.42;1.77;;;;;;;;;;5016677;28;20467;-54
2021/10/05 11:34:23;;;;;;;4.85;2.00;;;;;;;;;;5022502;28;20087;-55
2021/10/05 11:36:49;;;;;;;6.15;1.80;;;;;;;;;;5020188;28;20687;-55
2021/10/05 11:39:21;;;;;;;4.25;1.70;;;;;;;;;;5011862;28;20036;-54
2021/10/05 11:41:49;;;;;;;4.60;1.80;;;;;;;;;;5006955;28;20049;-55
2021/10/05 11:44:18;;;;;;;8.52;1.92;;;;;;;;;;5017690;28;20087;-55
2021/10/05 11:47:02;;;;;;;4.70;1.35;;;;;;;;;;5011383;28;20037;-54
2021/10/05 11:49:29;;;;;;;3.47;1.90;;;;;;;;;;5011065;28;20467;-58
2021/10/05 11:51:55;;;;;;;3.35;1.70;;;;;;;;;;5031816;28;20030;-55
2021/10/05 11:54:31;;;;;;;5.32;2.33;;;;;;;;;;5024239;28;20026;-55
2021/10/05 11:56:57;;;;;;;4.43;1.73;;;;;;;;;;5011275;28;20042;-56
2021/10/05 11:59:26;;;;;;;5.97;2.00;;;;;;;;;;5026904;28;20472;-54
2021/10/05 12:02:01;;;;;;;7.13;1.83;;;;;;;;;;5015995;28;20068;-53
2021/10/05 12:04:26;;;;;;;4.38;1.98;;;;;;;;;;5012706;28;20035;-54
2021/10/05 12:06:52;;;;;;;6.65;2.20;;;;;;;;;;5011091;28;20615;-55
2021/10/05 12:09:19;;;;;;;3.17;1.77;;;;;;;;;;5016759;28;20556;-54
2021/10/05 12:11:45;;;;;;;6.85;1.95;;;;;;;;;;5006149;28;20115;-54
2021/10/05 12:14:11;;;;;;;4.35;1.55;;;;;;;;;;5006827;28;20555;-53
2021/10/05 12:16:36;;;;;;;4.03;1.75;;;;;;;;;;5020593;28;20061;-54
2021/10/05 12:19:02;;;;;;;4.47;1.67;;;;;;;;;;5016172;28;20046;-54
2021/10/05 12:21:28;;;;;;;3.67;1.90;;;;;;;;;;5014014;28;20030;-55
2021/10/05 12:23:53;;;;;;;4.13;2.00;;;;;;;;;;5007449;28;20029;-54
2021/10/05 12:26:19;;;;;;;4.75;1.70;;;;;;;;;;5018026;28;20535;-55
2021/10/05 12:28:54;;;;;;;6.40;2.13;;;;;;;;;;5021065;28;20053;-55
2021/10/05 12:31:19;;;;;;;3.33;1.75;;;;;;;;;;5010971;28;20046;-53
2021/10/05 12:33:54;;;;;;;4.78;1.77;;;;;;;;;;5005147;28;20065;-55
2021/10/05 12:36:20;;;;;;;5.20;1.92;;;;;;;;;;5012527;28;20278;-55
2021/10/05 12:38:45;;;;;;;5.80;1.70;;;;;;;;;;5012472;28;20061;-54
2021/10/05 12:41:10;;;;;;;7.43;1.85;;;;;;;;;;5015619;28;20044;-55
2021/10/05 12:43:36;;;;;;;7.00;2.33;;;;;;;;;;5007585;28;20030;-54
2021/10/05 12:46:02;;;;;;;8.60;2.00;;;;;;;;;;5016566;28;20045;-54
2021/10/05 12:48:31;;;;;;;7.25;2.03;;;;;;;;;;5017237;28;20018;-53
2021/10/05 12:50:56;;;;;;;4.07;1.87;;;;;;;;;;5010669;28;20032;-54
2021/10/05 12:53:21;;;;;;;6.00;1.88;;;;;;;;;;5019633;28;20029;-55
2021/10/05 12:55:46;;;;;;;5.15;1.60;;;;;;;;;;5018106;28;20044;-54
2021/10/05 12:58:12;;;;;;;3.08;1.77;;;;;;;;;;5015042;28;20030;-54
2021/10/05 13:00:38;;;;;;;3.25;1.73;;;;;;;;;;5009928;28;20038;-53
2021/10/05 13:03:03;;;;;;;8.18;2.25;;;;;;;;;;5013969;28;20026;-55
2021/10/05 13:05:28;;;;;;;4.55;1.58;;;;;;;;;;5026867;28;20550;-54
2021/10/05 13:07:54;;;;;;;4.55;1.65;;;;;;;;;;5011624;28;20128;-54
2021/10/05 13:10:20;;;;;;;4.60;1.80;;;;;;;;;;5012151;28;20290;-55
2021/10/05 13:12:45;;;;;;;5.22;1.90;;;;;;;;;;5018271;28;20570;-54
2021/10/05 13:15:10;;;;;;;4.68;1.70;;;;;;;;;;5010347;28;20060;-52
2021/10/05 13:17:36;;;;;;;6.95;1.90;;;;;;;;;;5008734;28;20022;-54
2021/10/05 13:20:02;;;;;;;5.60;1.80;;;;;;;;;;5013887;28;20026;-53
2021/10/05 13:22:27;;;;;;;7.63;1.60;;;;;;;;;;5012357;28;20025;-56
2021/10/05 13:24:53;;;;;;;7.80;1.88;;;;;;;;;;5012812;28;20049;-56
2021/10/05 13:27:20;;;;;;;8.20;2.10;;;;;;;;;;5009730;28;20396;-57
2021/10/05 13:29:45;;;;;;;5.18;1.88;;;;;;;;;;5010542;28;20416;-55
2021/10/05 13:32:11;;;;;;;4.95;1.95;;;;;;;;;;5014641;28;20617;-54
2021/10/05 13:34:36;;;;;;;4.88;1.70;;;;;;;;;;5009626;28;20033;-56
2021/10/05 13:37:01;;;;;;;3.95;1.55;;;;;;;;;;5010040;28;20038;-56
2021/10/05 13:39:26;;;;;;;5.55;1.75;;;;;;;;;;5011243;28;20045;-56
2021/10/05 13:41:52;;;;;;;6.03;1.67;;;;;;;;;;5005813;28;20040;-53
2021/10/05 13:44:17;;;;;;;6.88;1.98;;;;;;;;;;5014031;28;20040;-54
2021/10/05 13:46:44;;;;;;;3.45;1.92;;;;;;;;;;5009463;28;20029;-55
2021/10/05 13:49:09;;;;;;;6.18;1.90;;;;;;;;;;5021377;28;20030;-55
2021/10/05 13:51:34;;;;;;;3.55;1.70;;;;;;;;;;5018330;28;20064;-55
2021/10/05 13:53:59;;;;;;;3.42;1.77;;;;;;;;;;5015585;28;20289;-54
2021/10/05 13:56:27;;;;;;;6.78;1.90;;;;;;;;;;5007865;28;20038;-55
2021/10/05 13:58:52;;;;;;;2.95;1.70;;;;;;;;;;5022810;28;20036;-54
2021/10/05 14:01:17;;;;;;;4.03;1.45;;;;;;;;;;5016351;28;20042;-53
2021/10/05 14:03:43;;;;;;;7.65;2.03;;;;;;;;;;5014535;28;20365;-53
2021/10/05 14:06:09;;;;;;;13.57;2.20;;;;;;;;;;5014784;28;20428;-53
2021/10/05 14:08:34;;;;;;;4.05;1.67;;;;;;;;;;5018992;28;20028;-54
2021/10/05 14:10:59;;;;;;;5.07;1.60;;;;;;;;;;5016613;28;20058;-56
2021/10/05 14:13:26;;;;;;;4.88;1.70;;;;;;;;;;5025179;28;20364;-53
2021/10/05 14:15:51;;;;;;;5.00;1.65;;;;;;;;;;5013706;28;20072;-54
2021/10/05 14:18:17;;;;;;;6.07;1.67;;;;;;;;;;5012348;28;20017;-53
2021/10/05 14:20:42;;;;;;;9.77;1.73;;;;;;;;;;5007687;28;20038;-54
2021/10/05 14:23:07;;;;;;;4.15;1.70;;;;;;;;;;5013465;28;20053;-53
2021/10/05 14:25:32;;;;;;;5.32;1.80;;;;;;;;;;5017213;28;20502;-58
2021/10/05 14:27:57;;;;;;;4.22;1.77;;;;;;;;;;5017481;28;20574;-57
2021/10/05 14:30:23;;;;;;;6.35;1.80;;;;;;;;;;5018061;28;20127;-54
2021/10/05 14:32:48;;;;;;;4.45;1.67;;;;;;;;;;5009453;28;20022;-54
2021/10/05 14:35:13;;;;;;;5.80;1.60;;;;;;;;;;5023877;28;22014;-54
2021/10/05 14:37:38;;;;;;;3.03;1.60;;;;;;;;;;5012435;28;20117;-55